createdAt,value
2018-08-11T00:02:06.018Z,83.34
2018-08-11T00:04:34.980Z,83.71
2018-08-11T00:07:03.387Z,83.79
2018-08-11T00:09:31.879Z,84.67
2018-08-11T00:12:00.347Z,85.37
2018-08-11T00:14:28.825Z,86.25
2018-08-11T00:16:57.185Z,86.73
2018-08-11T00:19:25.827Z,86.44
2018-08-11T00:21:54.161Z,86.43
2018-08-11T00:24:22.560Z,87.54
2018-08-11T00:26:52.102Z,87.79
2018-08-11T00:29:21.096Z,88.67
2018-08-11T00:31:49.985Z,89.01
2018-08-11T00:34:19.482Z,88.63
2018-08-11T00:36:48.462Z,88.65
2018-08-11T00:39:16.875Z,87.96
2018-08-11T00:41:45.225Z,87.81
2018-08-11T00:44:13.635Z,87.32
2018-08-11T00:46:42.029Z,86.28
2018-08-11T00:49:10.391Z,85.97
2018-08-11T00:51:38.760Z,84.51
2018-08-11T00:54:07.429Z,84.95
2018-08-11T00:56:37.314Z,85.19
2018-08-11T00:59:06.738Z,84.87
2018-08-11T01:01:36.562Z,84.78
2018-08-11T01:04:05.140Z,82.56
2018-08-11T01:06:34.986Z,81.91
2018-08-11T01:09:03.409Z,81.45
2018-08-11T01:11:31.753Z,82.03
2018-08-11T01:14:00.113Z,82.86
2018-08-11T01:16:28.449Z,80.39
2018-08-11T01:18:56.865Z,81.75
2018-08-11T01:21:25.257Z,82.84
2018-08-11T01:23:53.589Z,83.14
2018-08-11T01:26:21.932Z,82.78
2018-08-11T01:28:51.422Z,83.18
2018-08-11T01:31:20.697Z,83.97
2018-08-11T01:33:49.169Z,85.10
2018-08-11T01:36:17.565Z,84.82
2018-08-11T01:38:45.970Z,85.52
2018-08-11T01:41:14.323Z,85.97
2018-08-11T01:43:42.665Z,85.95
2018-08-11T01:46:11.006Z,85.72
2018-08-11T01:48:39.479Z,86.30
2018-08-11T01:51:08.496Z,86.33
2018-08-11T01:53:37.797Z,86.41
2018-08-11T01:56:07.184Z,87.26
2018-08-11T01:58:36.789Z,88.06
2018-08-11T02:01:05.905Z,88.59
2018-08-11T02:03:35.172Z,87.37
2018-08-11T02:06:03.520Z,87.47
2018-08-11T02:08:32.353Z,87.23
2018-08-11T02:11:00.701Z,88.42
2018-08-11T02:13:29.049Z,88.81
2018-08-11T02:15:57.529Z,89.41
2018-08-11T02:18:26.340Z,89.55
2018-08-11T02:20:54.772Z,90.28
2018-08-11T02:23:23.092Z,91.24
2018-08-11T02:25:52.336Z,91.74
2018-08-11T02:28:21.588Z,92.22
2018-08-11T02:30:50.949Z,92.71
2018-08-11T02:33:20.832Z,92.63
2018-08-11T02:35:50.739Z,92.65
2018-08-11T02:38:20.252Z,92.58
2018-08-11T02:40:48.729Z,92.46
2018-08-11T02:43:17.066Z,93.03
2018-08-11T02:45:45.495Z,93.25
2018-08-11T02:48:13.816Z,93.19
2018-08-11T02:50:42.180Z,93.49
2018-08-11T02:53:10.677Z,93.38
2018-08-11T02:55:39.006Z,93.21
2018-08-11T02:58:07.507Z,92.86
2018-08-11T03:00:36.962Z,92.79
2018-08-11T03:03:05.991Z,92.17
2018-08-11T03:08:05.993Z,92.73
2018-08-11T03:10:36.108Z,92.95
2018-08-11T03:13:04.518Z,93.32
2018-08-11T03:15:32.854Z,94.07
2018-08-11T03:18:01.180Z,94.74
2018-08-11T03:20:29.543Z,94.55
2018-08-11T03:22:57.960Z,94.79
2018-08-11T03:25:26.297Z,95.31
2018-08-11T03:27:54.764Z,95.28
2018-08-11T03:30:23.099Z,96.06
2018-08-11T03:32:52.270Z,96.13
2018-08-11T03:35:21.856Z,96.34
2018-08-11T03:37:51.654Z,95.75
2018-08-11T03:40:21.364Z,95.53
2018-08-11T03:42:49.817Z,95.96
2018-08-11T03:45:18.156Z,96.23
2018-08-11T03:47:46.505Z,96.95
2018-08-11T03:50:14.905Z,96.83
2018-08-11T03:52:43.441Z,97.21
2018-08-11T03:55:11.769Z,97.58
2018-08-11T03:57:40.134Z,97.54
2018-08-11T04:00:10.219Z,97.24
2018-08-11T04:02:38.567Z,97.66
2018-08-11T04:05:08.013Z,97.54
2018-08-11T04:07:37.361Z,97.09
2018-08-11T04:10:06.966Z,97.05
2018-08-11T04:12:35.925Z,96.35
2018-08-11T04:15:04.269Z,96.15
2018-08-11T04:17:38.248Z,96.33
2018-08-11T04:20:08.206Z,96.22
2018-08-11T04:22:38.672Z,96.38
2018-08-11T04:25:08.614Z,95.31
2018-08-11T04:27:38.344Z,95.72
2018-08-11T04:30:09.442Z,94.32
2018-08-11T04:32:37.762Z,93.89
2018-08-11T04:35:06.191Z,93.40
2018-08-11T04:37:34.674Z,93.26
2018-08-11T04:40:03.119Z,93.29
2018-08-11T04:42:31.690Z,92.92
2018-08-11T04:45:00.120Z,90.56
2018-08-11T04:47:28.490Z,91.04
2018-08-11T04:49:56.818Z,91.32
2018-08-11T04:52:25.225Z,90.78
2018-08-11T04:54:53.725Z,89.75
2018-08-11T04:57:22.050Z,88.90
2018-08-11T04:59:51.396Z,88.03
2018-08-11T05:02:20.728Z,87.61
2018-08-11T05:04:50.058Z,87.25
2018-08-11T05:07:18.442Z,86.95
2018-08-11T05:09:46.791Z,85.79
2018-08-11T05:12:15.283Z,86.09
2018-08-11T05:14:43.785Z,83.65
2018-08-11T05:17:12.224Z,84.19
2018-08-11T05:19:40.573Z,84.64
2018-08-11T05:22:08.916Z,84.45
2018-08-11T05:24:38.457Z,84.86
2018-08-11T05:27:06.821Z,83.62
2018-08-11T05:29:35.629Z,84.40
2018-08-11T05:32:04.055Z,84.88
2018-08-11T05:34:32.520Z,82.93
2018-08-11T05:37:00.874Z,84.39
2018-08-11T05:39:29.286Z,84.38
2018-08-11T05:41:57.623Z,85.48
2018-08-11T05:44:25.981Z,84.01
2018-08-11T05:46:54.338Z,82.87
2018-08-11T05:49:22.666Z,81.02
2018-08-11T05:51:52.273Z,81.29
2018-08-11T05:54:21.605Z,79.55
2018-08-11T05:56:51.748Z,79.69
2018-08-11T05:59:21.257Z,77.10
2018-08-11T06:01:49.613Z,76.91
2018-08-11T06:04:17.961Z,76.96
2018-08-11T06:06:46.329Z,75.26
2018-08-11T06:09:14.668Z,76.31
2018-08-11T06:11:43.035Z,74.88
2018-08-11T06:14:11.504Z,74.50
2018-08-11T06:16:39.884Z,74.59
2018-08-11T06:19:08.260Z,74.81
2018-08-11T06:21:37.689Z,75.52
2018-08-11T06:24:07.240Z,74.64
2018-08-11T06:26:36.233Z,74.12
2018-08-11T06:29:04.906Z,72.78
2018-08-11T06:31:33.420Z,74.39
2018-08-11T06:34:01.807Z,77.05
2018-08-11T06:36:30.221Z,74.48
2018-08-11T06:38:58.585Z,75.92
2018-08-11T06:41:27.005Z,76.34
2018-08-11T06:43:55.397Z,75.56
2018-08-11T06:46:23.737Z,75.15
2018-08-11T06:48:52.206Z,77.31
2018-08-11T06:51:21.074Z,76.14
2018-08-11T06:53:49.476Z,75.96
2018-08-11T06:56:17.872Z,75.41
2018-08-11T06:58:46.389Z,74.09
2018-08-11T07:01:15.728Z,72.21
2018-08-11T07:03:44.071Z,72.52
2018-08-11T07:06:12.425Z,70.61
2018-08-11T07:08:40.833Z,73.89
2018-08-11T07:11:09.270Z,71.20
2018-08-11T07:13:37.925Z,70.24
2018-08-11T07:16:07.299Z,68.31
2018-08-11T07:18:35.976Z,66.04
2018-08-11T07:21:04.333Z,61.25
2018-08-11T07:23:32.717Z,60.11
2018-08-11T07:26:01.144Z,61.56
2018-08-11T07:28:29.597Z,58.56
2018-08-11T07:30:57.957Z,59.64
2018-08-11T07:33:26.361Z,55.80
2018-08-11T07:35:54.695Z,53.59
2018-08-11T07:38:23.585Z,50.17
2018-08-11T07:40:52.076Z,51.72
2018-08-11T07:43:21.716Z,51.63
2018-08-11T07:45:51.426Z,52.38
2018-08-11T07:48:20.736Z,52.70
2018-08-11T07:50:49.926Z,51.19
2018-08-11T07:53:19.772Z,51.40
2018-08-11T07:55:49.065Z,55.11
2018-08-11T07:58:17.477Z,54.31
2018-08-11T08:00:45.827Z,51.34
2018-08-11T08:03:14.413Z,49.59
2018-08-11T08:05:42.869Z,50.52
2018-08-11T08:08:11.195Z,49.70
2018-08-11T08:10:39.597Z,50.12
2018-08-11T08:13:07.921Z,51.83
2018-08-11T08:15:36.282Z,49.62
2018-08-11T08:18:05.312Z,47.91
2018-08-11T08:20:33.757Z,49.19
2018-08-11T08:23:02.084Z,49.55
2018-08-11T08:25:30.468Z,52.42
2018-08-11T08:27:58.862Z,51.56
2018-08-11T08:30:27.197Z,51.03
2018-08-11T08:32:55.567Z,47.57
2018-08-11T08:35:23.901Z,47.23
2018-08-11T08:37:52.285Z,45.43
2018-08-11T08:40:21.304Z,46.33
2018-08-11T08:42:50.024Z,45.21
2018-08-11T08:45:19.093Z,45.75
2018-08-11T08:47:47.548Z,46.34
2018-08-11T08:50:15.996Z,42.69
2018-08-11T08:52:44.398Z,43.45
2018-08-11T08:55:12.776Z,45.42
2018-08-11T08:57:41.119Z,43.17
2018-08-11T09:00:09.638Z,43.69
2018-08-11T09:02:38.061Z,44.66
2018-08-11T09:05:07.544Z,44.14
2018-08-11T09:07:36.336Z,45.33
2018-08-11T09:10:04.971Z,44.71
2018-08-11T09:12:33.309Z,43.68
2018-08-11T09:15:01.774Z,43.68
2018-08-11T09:17:30.109Z,42.52
2018-08-11T09:19:58.501Z,42.46
2018-08-11T09:22:26.929Z,39.89
2018-08-11T09:24:55.276Z,41.15
2018-08-11T09:27:23.621Z,41.18
2018-08-11T09:29:51.961Z,41.18
2018-08-11T09:32:21.306Z,40.59
2018-08-11T09:34:49.731Z,44.55
2018-08-11T09:37:18.126Z,41.19
2018-08-11T09:39:46.550Z,40.60
2018-08-11T09:42:14.886Z,40.01
2018-08-11T09:44:43.330Z,39.80
2018-08-11T09:47:11.779Z,41.97
2018-08-11T09:49:40.326Z,41.47
2018-08-11T09:52:08.736Z,42.21
2018-08-11T09:54:37.745Z,42.75
2018-08-11T09:57:07.290Z,44.10
2018-08-11T09:59:36.437Z,39.60
2018-08-11T10:02:10.064Z,41.18
2018-08-11T10:04:38.449Z,40.75
2018-08-11T10:07:07.910Z,40.32
2018-08-11T10:09:36.529Z,41.14
2018-08-11T10:12:05.312Z,40.60
2018-08-11T10:14:33.807Z,41.41
2018-08-11T10:17:02.241Z,43.07
2018-08-11T10:19:30.647Z,39.68
2018-08-11T10:21:59.006Z,40.92
2018-08-11T10:24:27.406Z,38.96
2018-08-11T10:26:55.746Z,41.72
2018-08-11T10:29:24.169Z,41.54
2018-08-11T10:31:52.546Z,41.54
2018-08-11T10:34:22.249Z,38.45
2018-08-11T10:36:52.158Z,40.53
2018-08-11T10:39:22.157Z,39.81
2018-08-11T10:41:52.181Z,38.02
2018-08-11T10:44:21.653Z,38.89
2018-08-11T10:46:51.468Z,40.01
2018-08-11T10:49:20.216Z,38.79
2018-08-11T10:51:48.680Z,39.56
2018-08-11T10:54:17.032Z,38.86
2018-08-11T10:56:45.371Z,42.13
2018-08-11T10:59:13.706Z,40.73
2018-08-11T11:01:42.197Z,40.86
2018-08-11T11:04:10.536Z,42.39
2018-08-11T11:06:38.937Z,42.37
2018-08-11T11:09:09.000Z,42.96
2018-08-11T11:11:38.659Z,44.20
2018-08-11T11:14:07.136Z,42.63
2018-08-11T11:16:38.445Z,43.08
2018-08-11T11:19:07.859Z,41.19
2018-08-11T11:21:37.437Z,40.83
2018-08-11T11:24:07.427Z,38.46
2018-08-11T11:26:37.381Z,37.55
2018-08-11T11:29:06.757Z,38.25
2018-08-11T11:31:36.485Z,38.76
2018-08-11T11:34:05.408Z,40.74
2018-08-11T11:36:35.302Z,40.22
2018-08-11T11:39:04.866Z,41.81
2018-08-11T11:41:33.301Z,41.11
2018-08-11T11:44:01.701Z,41.29
2018-08-11T11:46:30.041Z,42.64
2018-08-11T11:48:58.426Z,41.60
2018-08-11T11:51:26.829Z,42.93
2018-08-11T11:53:55.169Z,43.02
2018-08-11T11:56:23.551Z,42.70
2018-08-11T11:58:51.950Z,41.82
2018-08-11T12:01:21.062Z,43.19
2018-08-11T12:03:49.400Z,42.32
2018-08-11T12:06:17.925Z,42.58
2018-08-11T12:08:46.788Z,42.28
2018-08-11T12:11:15.165Z,43.94
2018-08-11T12:13:43.521Z,43.66
2018-08-11T12:16:11.876Z,40.88
2018-08-11T12:18:40.717Z,40.54
2018-08-11T12:21:09.063Z,41.09
2018-08-11T12:23:38.757Z,40.83
2018-08-11T12:26:07.934Z,39.64
2018-08-11T12:28:37.445Z,39.45
2018-08-11T12:31:06.113Z,41.13
2018-08-11T12:33:36.255Z,38.58
2018-08-11T12:36:05.342Z,38.86
2018-08-11T12:38:34.077Z,37.09
2018-08-11T12:41:02.473Z,37.29
2018-08-11T12:43:30.809Z,36.93
2018-08-11T12:45:59.214Z,38.67
2018-08-11T12:48:27.614Z,37.96
2018-08-11T12:50:55.950Z,38.56
2018-08-11T12:53:24.363Z,36.76
2018-08-11T12:55:52.711Z,36.27
2018-08-11T12:58:22.284Z,34.79
2018-08-11T13:00:51.601Z,34.75
2018-08-11T13:03:21.286Z,36.26
2018-08-11T13:05:50.815Z,35.27
2018-08-11T13:08:20.747Z,35.88
2018-08-11T13:10:50.366Z,37.05
2018-08-11T13:13:19.901Z,35.10
2018-08-11T13:15:48.373Z,35.93
2018-08-11T13:18:16.730Z,35.63
2018-08-11T13:20:45.139Z,34.80
2018-08-11T13:23:13.442Z,33.82
2018-08-11T13:25:41.786Z,33.45
2018-08-11T13:28:10.152Z,33.47
2018-08-11T13:30:38.529Z,33.19
2018-08-11T13:33:07.245Z,33.60
2018-08-11T13:35:36.326Z,33.85
2018-08-11T13:38:05.407Z,33.69
2018-08-11T13:40:33.857Z,33.56
2018-08-11T13:43:02.184Z,32.18
2018-08-11T13:45:30.606Z,31.73
2018-08-11T13:47:58.961Z,32.38
2018-08-11T13:50:27.388Z,32.06
2018-08-11T13:52:55.971Z,32.10
2018-08-11T13:55:24.413Z,32.25
2018-08-11T13:57:52.797Z,32.05
2018-08-11T14:00:21.894Z,32.19
2018-08-11T14:02:51.375Z,33.11
2018-08-11T14:05:20.461Z,30.57
2018-08-11T14:07:49.943Z,29.50
2018-08-11T14:10:18.417Z,29.98
2018-08-11T14:12:46.769Z,29.55
2018-08-11T14:15:15.183Z,29.40
2018-08-11T14:17:43.530Z,30.93
2018-08-11T14:20:11.917Z,29.56
2018-08-11T14:22:40.540Z,29.43
2018-08-11T14:25:09.254Z,30.71
2018-08-11T14:27:38.812Z,31.73
2018-08-11T14:30:09.264Z,33.19
2018-08-11T14:32:38.493Z,31.70
2018-08-11T14:35:08.126Z,31.65
2018-08-11T14:37:36.606Z,31.22
2018-08-11T14:40:08.094Z,29.93
2018-08-11T14:42:37.287Z,30.37
2018-08-11T14:45:07.582Z,29.77
2018-08-11T14:47:36.687Z,32.40
2018-08-11T14:50:06.533Z,30.41
2018-08-11T14:52:36.532Z,31.38
2018-08-11T14:55:05.635Z,32.63
2018-08-11T14:57:34.054Z,32.34
2018-08-11T15:00:02.549Z,31.85
2018-08-11T15:02:30.921Z,30.50
2018-08-11T15:04:59.298Z,30.99
2018-08-11T15:07:27.645Z,30.05
2018-08-11T15:09:56.147Z,31.46
2018-08-11T15:12:24.609Z,32.69
2018-08-11T15:14:53.138Z,30.31
2018-08-11T15:17:21.533Z,30.91
2018-08-11T15:19:50.642Z,30.41
2018-08-11T15:22:20.076Z,28.82
2018-08-11T15:24:49.079Z,29.21
2018-08-11T15:27:17.421Z,31.42
2018-08-11T15:29:45.771Z,29.93
2018-08-11T15:32:14.120Z,30.05
2018-08-11T15:34:42.511Z,29.24
2018-08-11T15:37:10.924Z,28.31
2018-08-11T15:39:39.329Z,25.59
2018-08-11T15:42:08.632Z,26.35
2018-08-11T15:44:38.084Z,27.26
2018-08-11T15:47:07.630Z,27.15
2018-08-11T15:49:36.561Z,27.76
2018-08-11T15:52:05.547Z,28.02
2018-08-11T15:54:33.898Z,28.26
2018-08-11T15:57:02.271Z,27.32
2018-08-11T15:59:30.630Z,26.33
2018-08-11T16:01:58.962Z,28.98
2018-08-11T16:04:27.325Z,29.18
2018-08-11T16:06:55.672Z,30.09
2018-08-11T16:09:24.131Z,30.77
2018-08-11T16:11:52.481Z,31.62
2018-08-11T16:14:21.537Z,30.62
2018-08-11T16:16:50.930Z,32.39
2018-08-11T16:19:19.364Z,31.52
2018-08-11T16:21:47.768Z,31.94
2018-08-11T16:24:16.194Z,31.71
2018-08-11T16:26:44.557Z,32.41
2018-08-11T16:29:12.900Z,31.55
2018-08-11T16:31:41.401Z,34.57
2018-08-11T16:34:09.822Z,32.94
2018-08-11T16:36:38.721Z,32.77
2018-08-11T16:39:08.649Z,32.11
2018-08-11T16:41:38.833Z,32.55
2018-08-11T16:44:08.090Z,32.77
2018-08-11T16:46:38.365Z,33.34
2018-08-11T16:49:07.669Z,32.92
2018-08-11T16:51:36.769Z,33.48
2018-08-11T16:54:05.573Z,33.46
2018-08-11T16:56:34.475Z,33.31
2018-08-11T16:59:02.850Z,33.58
2018-08-11T17:01:31.405Z,33.49
2018-08-11T17:03:59.829Z,33.17
2018-08-11T17:06:28.178Z,33.14
2018-08-11T17:08:56.557Z,33.81
2018-08-11T17:11:24.906Z,34.43
2018-08-11T17:13:53.233Z,34.71
2018-08-11T17:16:21.662Z,36.11
2018-08-11T17:18:50.917Z,35.13
2018-08-11T17:21:19.925Z,36.08
2018-08-11T17:23:49.039Z,35.31
2018-08-11T17:26:17.474Z,35.27
2018-08-11T17:28:45.809Z,35.86
2018-08-11T17:31:14.149Z,37.47
2018-08-11T17:33:42.585Z,36.40
2018-08-11T17:36:10.901Z,36.19
2018-08-11T17:38:39.317Z,36.36
2018-08-11T17:41:08.532Z,37.00
2018-08-11T17:43:37.845Z,37.38
2018-08-11T17:46:06.633Z,38.81
2018-08-11T17:48:35.163Z,37.85
2018-08-11T17:51:03.650Z,37.38
2018-08-11T17:53:32.093Z,38.21
2018-08-11T17:56:00.485Z,37.33
2018-08-11T17:58:29.449Z,38.39
2018-08-11T18:00:58.138Z,39.30
2018-08-11T18:03:27.416Z,41.64
2018-08-11T18:05:55.924Z,38.32
2018-08-11T18:08:24.782Z,38.63
2018-08-11T18:10:53.124Z,39.96
2018-08-11T18:13:21.453Z,39.54
2018-08-11T18:15:50.861Z,40.24
2018-08-11T18:18:19.982Z,40.28
2018-08-11T18:20:48.453Z,41.27
2018-08-11T18:23:16.812Z,42.39
2018-08-11T18:25:45.158Z,42.53
2018-08-11T18:28:13.763Z,42.68
2018-08-11T18:30:42.111Z,43.07
2018-08-11T18:33:11.531Z,43.42
2018-08-11T18:35:39.941Z,44.58
2018-08-11T18:38:08.365Z,44.75
2018-08-11T18:40:37.575Z,44.86
2018-08-11T18:43:06.709Z,45.87
2018-08-11T18:45:35.200Z,45.59
2018-08-11T18:48:03.556Z,46.10
2018-08-11T18:50:31.930Z,46.02
2018-08-11T18:53:00.526Z,45.85
2018-08-11T18:55:28.899Z,45.84
2018-08-11T18:57:57.321Z,46.53
2018-08-11T19:00:26.057Z,46.18
2018-08-11T19:02:54.445Z,46.35
2018-08-11T19:05:22.949Z,47.41
2018-08-11T19:07:52.090Z,46.81
2018-08-11T19:10:21.635Z,48.19
2018-08-11T19:12:51.582Z,47.88
2018-08-11T19:15:21.137Z,48.89
2018-08-11T19:17:49.630Z,48.75
2018-08-11T19:20:17.969Z,49.66
2018-08-11T19:22:46.497Z,49.68
2018-08-11T19:25:14.847Z,50.82
2018-08-11T19:27:43.255Z,51.08
2018-08-11T19:30:12.287Z,51.45
2018-08-11T19:32:41.343Z,51.88
2018-08-11T19:35:10.261Z,52.08
2018-08-11T19:37:39.050Z,52.22
2018-08-11T19:40:09.039Z,52.84
2018-08-11T19:42:38.904Z,53.67
2018-08-11T19:45:10.118Z,53.09
2018-08-11T19:47:38.919Z,52.57
2018-08-11T19:50:10.008Z,53.14
2018-08-11T19:52:38.978Z,53.39
2018-08-11T19:55:09.290Z,53.76
2018-08-11T19:57:39.243Z,53.89
2018-08-11T20:00:11.526Z,52.82
2018-08-11T20:02:41.251Z,52.99
2018-08-11T20:05:11.168Z,52.53
2018-08-11T20:07:40.701Z,53.71
2018-08-11T20:10:09.723Z,53.80
2018-08-11T20:12:39.895Z,53.90
2018-08-11T20:15:10.044Z,54.59
2018-08-11T20:17:39.144Z,54.51
2018-08-11T20:20:09.213Z,54.48
2018-08-11T20:22:39.130Z,54.19
2018-08-11T20:25:08.974Z,54.69
2018-08-11T20:27:38.600Z,56.55
2018-08-11T20:30:09.976Z,55.20
2018-08-11T20:32:38.863Z,54.83
2018-08-11T20:35:07.809Z,55.12
2018-08-11T20:37:36.526Z,56.10
2018-08-11T20:40:06.764Z,57.25
2018-08-11T20:42:35.690Z,57.09
2018-08-11T20:45:05.735Z,56.11
2018-08-11T20:47:34.621Z,57.22
2018-08-11T20:50:02.956Z,57.41
2018-08-11T20:52:31.471Z,57.19
2018-08-11T20:54:59.825Z,58.11
2018-08-11T20:57:28.309Z,58.73
2018-08-11T20:59:56.710Z,61.14
2018-08-11T21:02:25.279Z,58.84
2018-08-11T21:04:53.674Z,58.77
2018-08-11T21:07:22.080Z,60.39
2018-08-11T21:09:51.488Z,59.11
2018-08-11T21:12:21.138Z,59.42
2018-08-11T21:14:50.268Z,59.03
2018-08-11T21:17:18.650Z,60.30
2018-08-11T21:19:47.006Z,60.91
2018-08-11T21:22:15.461Z,60.07
2018-08-11T21:24:44.882Z,60.35
2018-08-11T21:27:13.204Z,60.18
2018-08-11T21:29:41.811Z,60.56
2018-08-11T21:32:10.166Z,62.53
2018-08-11T21:34:38.545Z,62.93
2018-08-11T21:37:07.846Z,63.29
2018-08-11T21:39:36.773Z,62.78
2018-08-11T21:42:05.784Z,62.72
2018-08-11T21:44:34.213Z,63.43
2018-08-11T21:47:02.564Z,63.70
2018-08-11T21:49:31.122Z,63.58
2018-08-11T21:52:00.331Z,62.87
2018-08-11T21:54:28.747Z,63.77
2018-08-11T21:56:57.086Z,63.74
2018-08-11T21:59:25.456Z,64.90
2018-08-11T22:01:53.858Z,64.39
2018-08-11T22:04:26.226Z,65.12
2018-08-11T22:06:54.606Z,64.85
2018-08-11T22:09:22.989Z,65.31
2018-08-11T22:11:51.805Z,64.96
2018-08-11T22:14:21.279Z,64.90
2018-08-11T22:16:49.665Z,65.16
2018-08-11T22:19:18.165Z,64.95
2018-08-11T22:21:46.541Z,65.42
2018-08-11T22:24:14.901Z,66.06
2018-08-11T22:26:43.250Z,65.95
2018-08-11T22:29:12.112Z,66.36
2018-08-11T22:31:40.497Z,66.61
2018-08-11T22:34:08.834Z,67.42
2018-08-11T22:36:38.513Z,66.66
2018-08-11T22:39:09.917Z,67.01
2018-08-11T22:41:39.013Z,67.29
2018-08-11T22:44:08.461Z,67.16
2018-08-11T22:46:38.212Z,68.10
2018-08-11T22:49:07.844Z,70.08
2018-08-11T22:51:36.808Z,69.98
2018-08-11T22:54:05.767Z,71.26
2018-08-11T22:56:37.216Z,71.58
2018-08-11T22:59:06.083Z,71.52
2018-08-11T23:01:34.518Z,71.97
2018-08-11T23:04:02.867Z,71.07
2018-08-11T23:06:31.202Z,72.02
2018-08-11T23:08:59.630Z,72.43
2018-08-11T23:11:28.058Z,72.28
2018-08-11T23:13:56.384Z,73.57
2018-08-11T23:16:24.814Z,73.52
2018-08-11T23:18:53.252Z,73.73
2018-08-11T23:21:22.880Z,74.42
2018-08-11T23:23:52.354Z,74.38
2018-08-11T23:26:21.830Z,74.19
2018-08-11T23:28:51.373Z,75.69
2018-08-11T23:31:19.724Z,75.70
2018-08-11T23:33:48.061Z,75.24
2018-08-11T23:36:16.426Z,75.67
2018-08-11T23:38:44.753Z,75.94
2018-08-11T23:41:13.081Z,76.00
2018-08-11T23:43:41.418Z,75.19
2018-08-11T23:46:09.800Z,76.62
2018-08-11T23:48:38.437Z,76.69
2018-08-11T23:51:07.405Z,76.07
2018-08-11T23:53:37.181Z,76.10
2018-08-11T23:56:06.177Z,75.92
2018-08-11T23:58:34.631Z,76.05
